In Rescue
 
Open Full Screen Window  High Contrast Mode
Wind Gusting 14 knots
07
May 20, 2019 1:57 PM CDT
Weather Information
Wind Direction
  090 °
Wind Speed
  07 kt (8 mph)
Wind Gust
  14 kt (16 mph)
Altimeter
30.15 in
Visibility
10 SM
Temperature
16° C
61° F
Dewpoint
00° C
32° F
Humidity
34%
1hr Rain Fall
00.00 in.
24hr Rain Fall
00.00 in.
Sky Condition
Clear
VFR

METAR KBJI 201857Z AUTO 09007G14KT 10SM CLR 16/00 A3015 RMK AO2 T01580003

FAA Disclaimer: The data displayed is for advisory purposes only and is not to be used for flight planning or operations.